الكل
Damyns Hall Aerodrome Airport (Upminster, England) EGML حالة الطقس
There is no TAF data available at EGML. Showing TAF data for EGLC (8 mi غرب).
توقع منطقة محطة المطار LCY (لا توجد بيانات لـEGML)
| Date | Time (BST) | Flight Rules | Wind Dir. | Speed | Type | Height AGL (ft) | Visibility | Remarks | ||||||
|---|---|---|---|---|---|---|---|---|---|---|---|---|---|---|
| 06-سبت | 15:00 | VFR | 170° | 10 kt | Few | 2,000 | >= 6 miles | |||||||
| 06-سبت | 14:00 | VFR | 170° | 10 kt | Few | 2,000 | >= 6 miles | |||||||
| 06-سبت | 13:00 | VFR | 170° | 10 kt | Few | 2,000 | >= 6 miles | |||||||
| 06-سبت | 12:00 | VFR | 170° | 10 kt | Few | 2,000 | >= 6 miles | |||||||
| 06-سبت | 11:00 | VFR | 170° | 10 kt | Few | 2,000 | >= 6 miles | |||||||
| 06-سبت | 10:00 | VFR | 170° | 10 kt | Few | 2,000 | >= 6 miles | |||||||
| 06-سبت | 09:00 | MVFR | 170° | 10 kt | Few | 2,000 | 8000 meters. | Becoming. Light rain showers. (30% chance) | ||||||
| 06-سبت | 08:00 | MVFR | 170° | 10 kt | Few | 2,000 | 8000 meters. | Becoming. Light rain showers. (30% chance) | ||||||
| 06-سبت | 07:00 | MVFR | 170° | 10 kt | Few | 2,000 | 8000 meters. | Becoming. Light rain showers. (30% chance) | ||||||
There is no METAR data available at EGML. Showing METAR data for EGLC (8 mi غرب).
محفوظات أحدث تقرير روتيني عن حالة الطقس من أجل الطيران (الميتار) LCY ( لا توجد بيانات لـEGML)
| Date | Time (BST) | Flight Rules | Wind Dir. | Speed | Type | Height AGL (ft) | Visibility | Temp (°C) | Temp (°F) | Dew Point (°C) | Dew Point (°F) | Rel. Humid. | Pressure | Density Altitude | Remarks |
|---|---|---|---|---|---|---|---|---|---|---|---|---|---|---|---|
| 06-سبت | 06:20 | VFR | 200° | 3 kt | 10000 meters | 16° | 60° | 11° | 51° | 72% | 1023 mb | -150 ft | |||
| 06-سبت | 05:50 | VFR | Variable | 2 kt | 10000 meters | 15° | 59° | 11° | 51° | 77% | 1023 mb | -270 ft | |||
| 06-سبت | 05:20 | VFR | Variable | 1 kt | 10000 meters | 16° | 60° | 11° | 51° | 72% | 1024 mb | -180 ft | |||
| 06-سبت | 04:50 | VFR | 250° | 1 kt | 10000 meters | 16° | 60° | 10° | 50° | 68% | 1024 mb | -180 ft | |||
| 06-سبت | 04:20 | VFR | 200° | 3 kt | 10000 meters | 16° | 60° | 10° | 50° | 68% | 1024 mb | -180 ft | |||
| 06-سبت | 03:50 | VFR | 200° | 4 kt | 10000 meters | 16° | 60° | 10° | 50° | 68% | 1024 mb | -180 ft | |||
| 06-سبت | 03:20 | VFR | 210° | 5 kt | 10000 meters | 16° | 60° | 11° | 51° | 72% | 1025 mb | -209 ft | |||
| 06-سبت | 02:50 | VFR | 200° | 4 kt | 10000 meters | 16° | 60° | 11° | 51° | 72% | 1025 mb | -209 ft | |||
| 06-سبت | 02:20 | VFR | 200° | 3 kt | 10000 meters | 17° | 62° | 11° | 51° | 68% | 1025 mb | -89 ft | |||
| 06-سبت | 01:50 | VFR | 220° | 4 kt | 10000 meters | 17° | 62° | 11° | 51° | 68% | 1025 mb | -89 ft | |||
| 06-سبت | 01:20 | VFR | 200° | 4 kt | 10000 meters | 17° | 62° | 11° | 51° | 68% | 1025 mb | -89 ft | |||
| 06-سبت | 00:50 | VFR | 230° | 3 kt | 10000 meters | 17° | 62° | 11° | 51° | 68% | 1025 mb | -89 ft | |||
| 06-سبت | 00:20 | VFR | 240° | 4 kt | 10000 meters | 17° | 62° | 11° | 51° | 68% | 1025 mb | -89 ft | |||
| 05-سبت | 23:50 | VFR | 230° | 5 kt | 10000 meters | 18° | 64° | 11° | 51° | 64% | 1025 mb | 31 ft | |||
| 05-سبت | 23:20 | VFR | 240° | 7 kt | 10000 meters | 18° | 64° | 11° | 51° | 64% | 1025 mb | 31 ft | |||
| 05-سبت | 22:50 | VFR | 230° | 7 kt | 10000 meters | 18° | 64° | 11° | 51° | 64% | 1025 mb | 31 ft | |||
| 05-سبت | 22:20 | VFR | 220° | 4 kt | 10000 meters | 18° | 64° | 11° | 51° | 64% | 1025 mb | 31 ft | |||
| 05-سبت | 21:50 | VFR | 230° | 5 kt | 10000 meters | 18° | 64° | 11° | 51° | 64% | 1025 mb | 31 ft | |||
| 05-سبت | 21:20 | VFR | 210° | 5 kt | 10000 meters | 19° | 66° | 11° | 51° | 60% | 1025 mb | 151 ft | |||
| 05-سبت | 20:50 | VFR | 200° | 6 kt | 10000 meters | 20° | 68° | 10° | 50° | 53% | 1025 mb | 271 ft | |||
| 05-سبت | 20:20 | VFR | Variable | 1 kt | 10000 meters | 21° | 69° | 10° | 50° | 49% | 1024 mb | 420 ft | |||
| 05-سبت | 19:50 | VFR | 270° | 3 kt | 10000 meters | 21° | 69° | 8° | 46° | 43% | 1024 mb | 420 ft | |||
| 05-سبت | 19:20 | VFR | 260° | 4 kt | 10000 meters | 22° | 71° | 7° | 44° | 38% | 1024 mb | 540 ft | |||
| 05-سبت | 18:50 | VFR | 260° | 4 kt | 10000 meters | 22° | 71° | 8° | 46° | 41% | 1024 mb | 540 ft |
تسجيل الدخول
| مُتصفحك غير مُدعَّم. قم بترقية متصفحك |
